Time;durP1;ratioP1;P1;durP2;ratioP2;P2;SDS_P1;SDS_P2;PMS_P1;PMS_P2;Temp;Humidity;BMP_temperature;BMP_pressure;BME280_temperature;BME280_humidity;BME280_pressure;Samples;Min_cycle;Max_cycle;Signal;HPM_P1;HPM_P2
2023/04/20 00:02:50;;;;;;;4.03;2.40;;;;;;;;;;6285722;28;20248;-73
2023/04/20 00:05:51;;;;;;;3.90;2.10;;;;;;;;;;6298026;28;20185;-73
2023/04/20 00:08:52;;;;;;;6.73;2.70;;;;;;;;;;6315603;28;20237;-72
2023/04/20 00:11:53;;;;;;;5.37;2.60;;;;;;;;;;6297606;28;20238;-73
2023/04/20 00:14:54;;;;;;;4.20;2.80;;;;;;;;;;6308734;28;20192;-73
2023/04/20 00:17:56;;;;;;;5.83;2.17;;;;;;;;;;6322106;28;20185;-72
2023/04/20 00:20:57;;;;;;;5.90;2.53;;;;;;;;;;6293420;28;20224;-73
2023/04/20 00:23:58;;;;;;;3.33;1.93;;;;;;;;;;6298017;28;20200;-72
2023/04/20 00:26:58;;;;;;;2.00;1.80;;;7.90;99.90;;;;;;6298607;28;20185;-73
2023/04/20 00:29:59;;;;;;;5.07;2.40;;;5.70;99.90;;;;;;6259834;28;20220;-73
2023/04/20 00:33:00;;;;;;;7.13;2.70;;;5.80;99.90;;;;;;6275778;28;20190;-72
2023/04/20 00:36:01;;;;;;;5.33;2.37;;;5.80;99.90;;;;;;6291920;28;20256;-73
2023/04/20 00:39:03;;;;;;;8.40;3.40;;;5.90;99.90;;;;;;6311948;28;20192;-73
2023/04/20 00:42:06;;;;;;;6.17;2.90;;;5.90;99.90;;;;;;6279588;28;20209;-73
2023/04/20 00:45:07;;;;;;;7.77;2.90;;;5.80;99.90;;;;;;6282726;28;20197;-73
2023/04/20 00:48:07;;;;;;;5.10;3.03;;;5.80;99.90;;;;;;6299611;28;20272;-73
2023/04/20 00:51:08;;;;;;;4.40;2.50;;;5.80;99.90;;;;;;6291242;28;20189;-72
2023/04/20 00:54:10;;;;;;;4.37;2.60;;;5.90;99.90;;;;;;6282502;28;20185;-73
2023/04/20 00:57:12;;;;;;;3.57;2.10;;;5.80;99.90;;;;;;6270276;28;20197;-73
2023/04/20 01:00:14;;;;;;;6.93;2.90;;;5.80;99.90;;;;;;6288136;28;20247;-73
2023/04/20 01:03:15;;;;;;;6.17;2.93;;;5.80;99.90;;;;;;6301254;28;20211;-71
2023/04/20 01:06:16;;;;;;;5.30;2.33;;;5.70;99.90;;;;;;6275383;28;20194;-72
2023/04/20 01:09:17;;;;;;;7.57;2.80;;;5.70;99.90;;;;;;6282189;28;20258;-72
2023/04/20 01:12:17;;;;;;;5.03;2.67;;;5.70;99.90;;;;;;6263994;28;20184;-73
2023/04/20 01:15:18;;;;;;;7.80;3.43;;;5.50;99.90;;;;;;6293334;28;20513;-72
2023/04/20 01:18:19;;;;;;;3.40;2.90;;;5.50;99.90;;;;;;6287122;28;20232;-72
2023/04/20 01:21:21;;;;;;;4.13;2.40;;;5.50;99.90;;;;;;6307119;28;20282;-72
2023/04/20 01:24:21;;;;;;;6.20;3.00;;;5.50;99.90;;;;;;6328020;28;20184;-72
2023/04/20 01:27:22;;;;;;;5.67;2.90;;;5.50;99.90;;;;;;6266488;28;20184;-72
2023/04/20 01:30:23;;;;;;;5.57;3.20;;;5.50;99.90;;;;;;6263760;28;20209;-73
2023/04/20 01:33:23;;;;;;;4.90;2.90;;;5.50;99.90;;;;;;6284176;28;20282;-72
2023/04/20 01:36:24;;;;;;;7.87;3.07;;;5.50;99.90;;;;;;6282165;28;20211;-72
2023/04/20 01:39:25;;;;;;;8.53;3.67;;;5.40;99.90;;;;;;6267122;28;20189;-72
2023/04/20 01:42:26;;;;;;;5.33;3.67;;;5.50;99.90;;;;;;6258117;28;20257;-73
2023/04/20 01:45:26;;;;;;;6.77;3.20;;;5.50;99.90;;;;;;6277031;28;20246;-73
2023/04/20 01:48:27;;;;;;;5.60;3.30;;;5.30;99.90;;;;;;6269460;28;20251;-73
2023/04/20 01:51:28;;;;;;;4.73;3.10;;;5.30;99.90;;;;;;6279117;28;20267;-72
2023/04/20 01:54:29;;;;;;;6.90;3.17;;;5.40;99.90;;;;;;6272810;28;20197;-73
2023/04/20 01:57:29;;;;;;;6.50;3.33;;;5.40;99.90;;;;;;6278984;28;20201;-72
2023/04/20 02:00:30;;;;;;;7.37;3.17;;;5.50;99.90;;;;;;6275872;28;20291;-72
2023/04/20 02:03:31;;;;;;;4.40;2.90;;;5.50;99.90;;;;;;6293177;28;20198;-72
2023/04/20 02:06:32;;;;;;;4.90;2.50;;;5.50;99.90;;;;;;6286812;28;20193;-72
2023/04/20 02:09:32;;;;;;;7.47;3.17;;;5.50;99.90;;;;;;6268065;28;20299;-72
2023/04/20 02:12:34;;;;;;;3.70;2.63;;;5.40;99.90;;;;;;6277966;28;20185;-72
2023/04/20 02:15:35;;;;;;;4.27;2.90;;;5.40;99.90;;;;;;6302552;28;20191;-72
2023/04/20 02:18:36;;;;;;;4.93;2.90;;;5.40;99.90;;;;;;6290886;28;20190;-72
2023/04/20 02:21:36;;;;;;;10.53;3.70;;;5.30;99.90;;;;;;6276455;28;20194;-72
2023/04/20 02:24:37;;;;;;;6.03;3.13;;;5.30;99.90;;;;;;6295905;28;20465;-72
2023/04/20 02:27:38;;;;;;;7.63;3.77;;;5.20;99.90;;;;;;6281792;28;20189;-72
2023/04/20 02:30:39;;;;;;;4.17;2.97;;;5.20;99.90;;;;;;6277169;28;20205;-73
2023/04/20 02:33:39;;;;;;;6.93;3.10;;;5.10;99.90;;;;;;6291437;28;20236;-72
2023/04/20 02:36:40;;;;;;;12.90;3.73;;;5.10;99.90;;;;;;6295567;28;20216;-72
2023/04/20 02:39:41;;;;;;;14.30;4.23;;;5.20;99.90;;;;;;6258237;28;20193;-73
2023/04/20 02:42:42;;;;;;;9.07;3.47;;;5.20;99.90;;;;;;6276946;28;20192;-72
2023/04/20 02:45:42;;;;;;;5.70;3.30;;;5.20;99.90;;;;;;6296012;28;20238;-72
2023/04/20 02:48:43;;;;;;;9.70;4.87;;;5.30;99.90;;;;;;6299344;28;20269;-72
2023/04/20 02:51:43;;;;;;;8.50;4.00;;;5.30;99.90;;;;;;6287119;28;20195;-72
2023/04/20 02:54:44;;;;;;;9.00;4.20;;;5.30;99.90;;;;;;6273841;28;20189;-72
2023/04/20 02:57:45;;;;;;;7.70;4.17;;;5.30;99.90;;;;;;6260534;28;20191;-72
2023/04/20 03:00:46;;;;;;;8.07;4.13;;;5.30;99.90;;;;;;6274826;28;20185;-72
2023/04/20 03:03:46;;;;;;;10.47;4.50;;;5.30;99.90;;;;;;6272357;28;20192;-72
2023/04/20 03:06:49;;;;;;;12.83;5.03;;;5.30;99.90;;;;;;6281755;28;20195;-72
2023/04/20 03:09:50;;;;;;;5.57;4.13;;;5.30;99.90;;;;;;6280516;28;20277;-72
2023/04/20 03:12:51;;;;;;;10.97;4.33;;;5.30;99.90;;;;;;6282700;28;20189;-73
2023/04/20 03:15:51;;;;;;;9.77;4.67;;;5.40;99.90;;;;;;6287499;28;20196;-73
2023/04/20 03:18:52;;;;;;;11.67;5.60;;;5.40;99.90;;;;;;6269057;28;20196;-73
2023/04/20 03:21:53;;;;;;;6.73;4.40;;;5.50;99.90;;;;;;6275854;28;20190;-73
2023/04/20 03:24:53;;;;;;;19.23;5.90;;;5.50;99.90;;;;;;6295182;28;20196;-73
2023/04/20 03:27:54;;;;;;;12.37;5.07;;;5.50;99.90;;;;;;6283897;28;20193;-73
2023/04/20 03:30:55;;;;;;;14.47;5.60;;;5.50;99.90;;;;;;6285889;28;20217;-73
2023/04/20 03:33:55;;;;;;;17.93;7.00;;;5.40;99.90;;;;;;6275258;28;20371;-72
2023/04/20 03:36:56;;;;;;;13.17;5.13;;;5.50;99.90;;;;;;6278586;28;20291;-73
2023/04/20 03:39:57;;;;;;;15.00;5.03;;;5.50;99.90;;;;;;6278975;28;20294;-73
2023/04/20 03:42:57;;;;;;;12.17;5.53;;;5.50;99.90;;;;;;6280678;28;20197;-73
2023/04/20 03:45:58;;;;;;;10.33;5.50;;;5.50;99.90;;;;;;6273544;28;20186;-73
2023/04/20 03:48:59;;;;;;;10.33;5.57;;;5.50;99.90;;;;;;6288150;28;20224;-73
2023/04/20 03:51:59;;;;;;;14.03;5.93;;;5.50;99.90;;;;;;6296150;28;20221;-73
2023/04/20 03:55:00;;;;;;;14.27;5.73;;;5.50;99.90;;;;;;6259196;28;20193;-72
2023/04/20 03:58:01;;;;;;;10.63;5.73;;;5.50;99.90;;;;;;6270571;28;20189;-73
2023/04/20 04:01:08;;;;;;;14.37;6.53;;;5.50;99.90;;;;;;6284910;28;20203;-73
2023/04/20 04:04:09;;;;;;;16.53;6.57;;;5.60;99.90;;;;;;6305606;28;20201;-72
2023/04/20 04:07:10;;;;;;;16.60;8.33;;;5.60;99.90;;;;;;6289410;28;20204;-72
2023/04/20 04:10:10;;;;;;;10.93;6.07;;;5.60;99.90;;;;;;6260059;28;20220;-72
2023/04/20 04:13:11;;;;;;;20.83;9.60;;;5.60;99.90;;;;;;6303156;28;20192;-73
2023/04/20 04:16:12;;;;;;;17.53;7.47;;;5.60;99.90;;;;;;6291146;28;20188;-72
2023/04/20 04:19:12;;;;;;;19.00;7.27;;;5.50;99.90;;;;;;6296471;28;20200;-73
2023/04/20 04:22:13;;;;;;;22.87;8.37;;;5.50;99.90;;;;;;6287691;28;20192;-77
2023/04/20 04:25:14;;;;;;;12.70;6.07;;;5.50;99.90;;;;;;6267231;28;20193;-68
2023/04/20 04:28:15;;;;;;;11.83;6.03;;;5.50;99.90;;;;;;6268368;28;20200;-73
2023/04/20 04:31:20;;;;;;;12.70;6.97;;;5.60;99.90;;;;;;6271096;28;20195;-73
2023/04/20 04:34:22;;;;;;;26.00;8.50;;;5.60;99.90;;;;;;6282887;28;20233;-73
2023/04/20 04:37:23;;;;;;;15.37;6.97;;;5.70;99.90;;;;;;6284793;28;20247;-73
2023/04/20 04:40:24;;;;;;;17.53;7.00;;;5.70;99.90;;;;;;6281377;28;20189;-73
2023/04/20 04:43:26;;;;;;;14.23;6.53;;;5.80;99.90;;;;;;6275707;28;20189;-74
2023/04/20 04:46:27;;;;;;;14.93;7.03;;;5.80;99.90;;;;;;6296091;28;20205;-73
2023/04/20 04:49:28;;;;;;;15.17;7.37;;;5.80;99.90;;;;;;6265512;28;20303;-73
2023/04/20 04:52:30;;;;;;;21.53;10.00;;;5.90;99.90;;;;;;6265670;28;20199;-73
2023/04/20 04:55:30;;;;;;;15.97;7.97;;;5.90;99.90;;;;;;6272235;28;20212;-70
2023/04/20 04:58:31;;;;;;;19.23;8.73;;;5.90;99.90;;;;;;6291887;28;20193;-72
2023/04/20 05:01:32;;;;;;;18.83;8.20;;;6.00;99.90;;;;;;6304642;28;20196;-72
2023/04/20 05:04:32;;;;;;;16.33;7.47;;;6.00;99.90;;;;;;6288039;28;20193;-71
2023/04/20 05:07:33;;;;;;;23.83;10.10;;;6.10;99.90;;;;;;6270392;28;20201;-72
2023/04/20 05:10:34;;;;;;;13.57;7.00;;;6.10;99.90;;;;;;6282980;28;20208;-72
2023/04/20 05:13:35;;;;;;;13.53;7.03;;;6.00;99.90;;;;;;6279020;28;20193;-72
2023/04/20 05:16:36;;;;;;;11.03;7.03;;;6.00;99.90;;;;;;6293885;28;20192;-72
2023/04/20 05:19:36;;;;;;;13.17;7.57;;;6.10;99.90;;;;;;6288774;28;20188;-71
2023/04/20 05:22:37;;;;;;;19.40;9.27;;;6.30;99.90;;;;;;6280454;28;20192;-71
2023/04/20 05:25:38;;;;;;;14.30;8.90;;;6.40;99.90;;;;;;6268397;28;20220;-71
2023/04/20 05:28:38;;;;;;;13.37;7.70;;;6.50;99.90;;;;;;6282130;28;20209;-72
2023/04/20 05:31:39;;;;;;;12.77;7.00;;;6.40;99.90;;;;;;6257280;28;20182;-71
2023/04/20 05:34:40;;;;;;;19.43;8.63;;;6.60;99.90;;;;;;6276946;28;20244;-71
2023/04/20 05:37:40;;;;;;;13.30;6.53;;;6.70;99.90;;;;;;6290789;28;20318;-72
2023/04/20 05:40:41;;;;;;;9.70;7.07;;;6.80;99.90;;;;;;6268176;28;20200;-72
2023/04/20 05:43:42;;;;;;;9.80;6.20;;;6.80;99.90;;;;;;6267881;28;20234;-72
2023/04/20 05:46:42;;;;;;;13.27;7.23;;;6.70;99.90;;;;;;6289346;28;20292;-72
2023/04/20 05:49:44;;;;;;;16.33;7.70;;;6.80;99.90;;;;;;6291967;28;20233;-72
2023/04/20 05:52:45;;;;;;;12.83;6.57;;;6.90;99.90;;;;;;6266912;28;20189;-72
2023/04/20 05:55:46;;;;;;;20.70;8.13;;;6.90;99.90;;;;;;6258472;28;20203;-72
2023/04/20 05:58:47;;;;;;;18.83;7.23;;;7.00;99.90;;;;;;6273285;28;20197;-72
2023/04/20 06:01:48;;;;;;;14.93;7.07;;;7.00;99.90;;;;;;6288204;28;20247;-72
2023/04/20 06:04:49;;;;;;;14.80;7.17;;;7.10;99.90;;;;;;6288833;28;20192;-72
2023/04/20 06:07:49;;;;;;;15.67;6.63;;;7.20;99.90;;;;;;6274765;28;20257;-72
2023/04/20 06:10:57;;;;;;;7.37;5.87;;;7.20;99.90;;;;;;6278503;28;20205;-72
2023/04/20 06:13:57;;;;;;;9.50;5.83;;;7.10;99.90;;;;;;6301597;28;20177;-72
2023/04/20 06:16:58;;;;;;;12.57;5.90;;;7.00;99.90;;;;;;6294199;28;20173;-72
2023/04/20 06:19:59;;;;;;;8.40;6.37;;;7.00;99.90;;;;;;6273921;28;20217;-72
2023/04/20 06:22:59;;;;;;;10.43;6.40;;;7.00;99.90;;;;;;6283709;28;20288;-72
2023/04/20 06:26:00;;;;;;;11.47;6.17;;;7.00;99.90;;;;;;6298559;28;20208;-72
2023/04/20 06:29:01;;;;;;;10.43;6.13;;;7.00;99.90;;;;;;6289432;28;20216;-72
2023/04/20 06:32:02;;;;;;;14.20;7.67;;;7.20;99.90;;;;;;6260349;28;20185;-72
2023/04/20 06:35:03;;;;;;;12.70;6.17;;;7.20;99.90;;;;;;6288517;28;20284;-72
2023/04/20 06:38:04;;;;;;;11.87;5.97;;;7.40;99.90;;;;;;6285715;28;20197;-72
2023/04/20 06:41:04;;;;;;;15.27;7.10;;;7.40;99.90;;;;;;6284547;28;20216;-72
2023/04/20 06:44:05;;;;;;;14.00;6.47;;;7.60;99.90;;;;;;6272824;28;20186;-72
2023/04/20 06:47:06;;;;;;;9.23;5.43;;;7.60;99.90;;;;;;6256837;28;20194;-72
2023/04/20 06:50:08;;;;;;;8.87;5.20;;;7.80;99.90;;;;;;6281099;28;20214;-72
2023/04/20 06:53:09;;;;;;;5.40;4.90;;;7.50;99.90;;;;;;6301545;28;20184;-72
2023/04/20 06:56:10;;;;;;;8.33;4.70;;;7.20;99.90;;;;;;6289069;28;20196;-72
2023/04/20 06:59:11;;;;;;;5.93;4.53;;;7.40;99.90;;;;;;6263811;28;20189;-72
2023/04/20 07:02:11;;;;;;;6.00;4.80;;;7.50;99.90;;;;;;6278138;28;20200;-72
2023/04/20 07:05:13;;;;;;;10.20;5.47;;;7.40;99.90;;;;;;6244094;28;20197;-72
2023/04/20 07:08:16;;;;;;;8.67;5.57;;;7.50;99.90;;;;;;6303746;28;20255;-72
2023/04/20 07:11:17;;;;;;;5.93;4.50;;;7.60;99.90;;;;;;6285977;28;20219;-72
2023/04/20 07:14:18;;;;;;;8.17;5.13;;;7.60;99.90;;;;;;6269482;28;20192;-72
2023/04/20 07:17:18;;;;;;;5.63;5.03;;;7.80;99.90;;;;;;6264511;28;20185;-72
2023/04/20 07:20:19;;;;;;;5.50;4.70;;;8.00;99.90;;;;;;6293005;28;20184;-72
2023/04/20 07:23:20;;;;;;;6.67;4.60;;;8.20;99.90;;;;;;6295043;28;20188;-72
2023/04/20 07:26:20;;;;;;;12.17;5.33;;;8.40;99.90;;;;;;6288600;28;20205;-72
2023/04/20 07:29:21;;;;;;;5.30;4.30;;;8.50;99.90;;;;;;6286933;28;20210;-72
2023/04/20 07:32:22;;;;;;;6.10;3.83;;;8.50;99.90;;;;;;6293264;28;20215;-72
2023/04/20 07:35:23;;;;;;;6.70;3.73;;;8.40;99.90;;;;;;6279124;28;20272;-72
2023/04/20 07:38:23;;;;;;;4.77;3.57;;;8.30;99.90;;;;;;6295615;28;20180;-72
2023/04/20 07:41:24;;;;;;;4.43;3.17;;;8.50;99.90;;;;;;6295204;28;20196;-72
2023/04/20 07:44:25;;;;;;;7.63;4.00;;;8.50;99.90;;;;;;6296941;28;20188;-72
2023/04/20 07:47:26;;;;;;;7.60;3.17;;;8.60;99.90;;;;;;6266788;28;20254;-72
2023/04/20 07:50:27;;;;;;;3.20;2.90;;;8.60;99.90;;;;;;6303861;28;20212;-72
2023/04/20 07:53:30;;;;;;;3.07;2.53;;;8.30;99.90;;;;;;6277073;28;20189;-71
2023/04/20 07:56:31;;;;;;;3.83;2.80;;;8.30;99.90;;;;;;6272044;28;20189;-72
2023/04/20 07:59:32;;;;;;;5.53;3.30;;;8.30;99.90;;;;;;6290623;28;20327;-72
2023/04/20 08:02:33;;;;;;;2.93;2.63;;;8.30;99.90;;;;;;6289720;28;20216;-72
2023/04/20 08:05:35;;;;;;;5.90;3.53;;;8.30;99.90;;;;;;6320053;28;20271;-71
2023/04/20 08:08:36;;;;;;;6.30;3.87;;;8.40;99.90;;;;;;6281227;28;20209;-71
2023/04/20 08:11:37;;;;;;;6.83;3.90;;;8.50;99.90;;;;;;6272101;28;20194;-72
2023/04/20 08:14:39;;;;;;;6.10;4.27;;;8.40;99.90;;;;;;6268475;28;20177;-71
2023/04/20 08:17:40;;;;;;;6.23;4.10;;;8.40;99.90;;;;;;6266873;28;20189;-71
2023/04/20 08:20:40;;;;;;;6.97;4.90;;;8.50;99.90;;;;;;6277463;28;20209;-72
2023/04/20 08:23:41;;;;;;;6.23;4.30;;;8.40;99.90;;;;;;6274857;28;20193;-71
2023/04/20 08:26:42;;;;;;;6.23;4.20;;;8.40;99.90;;;;;;6297628;28;20186;-72
2023/04/20 08:29:43;;;;;;;5.57;3.77;;;8.50;99.90;;;;;;6275465;28;20327;-72
2023/04/20 08:32:44;;;;;;;5.57;4.17;;;8.50;99.90;;;;;;6300431;28;20305;-72
2023/04/20 08:35:45;;;;;;;5.53;4.67;;;8.60;99.90;;;;;;6322715;28;20236;-71
2023/04/20 08:38:50;;;;;;;8.13;4.60;;;8.60;99.90;;;;;;6281127;28;20201;-72
2023/04/20 08:41:54;;;;;;;6.70;4.93;;;8.60;99.90;;;;;;6292350;28;20185;-72
2023/04/20 08:44:56;;;;;;;6.93;4.50;;;8.40;99.90;;;;;;6288636;28;20207;-71
2023/04/20 08:48:05;;;;;;;8.80;4.37;;;8.30;99.90;;;;;;6279958;28;20192;-72
2023/04/20 08:51:06;;;;;;;5.17;4.13;;;8.50;99.90;;;;;;6297734;28;20290;-71
2023/04/20 08:54:07;;;;;;;4.10;3.70;;;8.50;99.90;;;;;;6278680;28;20311;-71
2023/04/20 08:57:08;;;;;;;5.47;4.57;;;8.60;99.90;;;;;;6274963;28;20227;-71
2023/04/20 09:00:10;;;;;;;5.70;5.10;;;8.80;99.90;;;;;;6252305;28;20176;-71
2023/04/20 09:03:10;;;;;;;4.97;4.47;;;8.90;99.90;;;;;;6268096;28;20288;-71
2023/04/20 09:06:16;;;;;;;4.37;3.97;;;8.80;99.90;;;;;;6274534;28;20188;-71
2023/04/20 09:09:23;;;;;;;5.33;4.07;;;9.10;99.90;;;;;;6303094;28;20231;-71
2023/04/20 09:12:23;;;;;;;5.17;4.27;;;9.40;99.90;;;;;;6276104;28;20182;-71
2023/04/20 09:15:28;;;;;;;5.23;4.50;;;9.70;99.90;;;;;;6289892;28;20274;-71
2023/04/20 09:18:29;;;;;;;4.83;4.33;;;10.00;99.90;;;;;;6299755;28;20192;-71
2023/04/20 09:21:31;;;;;;;5.43;4.40;;;10.40;99.90;;;;;;6292959;28;20185;-70
2023/04/20 09:24:34;;;;;;;4.80;3.97;;;10.80;99.90;;;;;;6296800;28;20185;-71
2023/04/20 09:27:34;;;;;;;4.30;3.90;;;10.90;99.90;;;;;;6304201;28;20232;-71
2023/04/20 09:30:44;;;;;;;4.60;4.20;;;10.70;99.90;;;;;;6291307;28;20772;-70
2023/04/20 09:33:44;;;;;;;4.90;4.40;;;9.80;99.90;;;;;;6289057;28;20225;-71
2023/04/20 09:36:50;;;;;;;6.17;3.97;;;10.00;99.90;;;;;;6290016;28;20236;-70
2023/04/20 09:39:58;;;;;;;6.37;4.87;;;10.00;99.90;;;;;;6309372;28;20185;-70
2023/04/20 09:43:06;;;;;;;4.90;4.40;;;9.70;99.90;;;;;;6314196;28;20218;-70
2023/04/20 09:46:06;;;;;;;5.40;4.07;;;9.70;99.90;;;;;;6291270;28;20197;-69
2023/04/20 09:49:10;;;;;;;4.37;3.97;;;9.50;99.90;;;;;;6281498;28;20220;-71
2023/04/20 09:52:11;;;;;;;4.40;4.00;;;9.70;99.90;;;;;;6295498;28;20186;-70
2023/04/20 09:55:12;;;;;;;4.60;4.20;;;10.00;99.90;;;;;;6276109;28;20190;-70
2023/04/20 09:58:13;;;;;;;5.07;4.57;;;9.60;99.90;;;;;;6288459;28;20188;-69
2023/04/20 10:01:14;;;;;;;5.57;5.07;;;9.40;99.90;;;;;;6298092;28;20193;-70
2023/04/20 10:04:15;;;;;;;5.40;4.90;;;9.50;99.90;;;;;;6269423;28;20205;-69
2023/04/20 10:07:26;;;;;;;6.30;5.70;;;9.60;99.90;;;;;;6272628;28;20189;-69
2023/04/20 10:10:27;;;;;;;6.93;5.40;;;9.80;99.90;;;;;;6296322;28;20221;-70
2023/04/20 10:13:32;;;;;;;6.23;4.70;;;10.30;99.90;;;;;;6295466;28;20192;-69
2023/04/20 10:16:33;;;;;;;7.20;4.70;;;10.00;99.90;;;;;;6259444;28;20190;-69
2023/04/20 10:19:40;;;;;;;6.63;5.23;;;10.30;99.90;;;;;;6273890;28;20224;-70
2023/04/20 10:22:41;;;;;;;6.33;5.50;;;10.40;99.70;;;;;;6304378;28;20248;-67
2023/04/20 10:25:44;;;;;;;6.83;5.60;;;10.70;98.10;;;;;;6276170;28;20251;-66
2023/04/20 10:28:45;;;;;;;5.23;4.73;;;10.60;91.70;;;;;;6279101;28;20213;-68
2023/04/20 10:31:46;;;;;;;7.60;5.40;;;10.40;92.40;;;;;;6282919;28;20197;-67
2023/04/20 10:34:46;;;;;;;5.90;4.87;;;10.70;96.60;;;;;;6301879;28;20339;-67
2023/04/20 10:37:49;;;;;;;6.80;4.33;;;11.10;99.00;;;;;;6319902;28;20196;-66
2023/04/20 10:40:50;;;;;;;5.40;4.90;;;10.90;86.00;;;;;;6317755;28;20189;-67
2023/04/20 10:43:50;;;;;;;5.20;4.33;;;10.60;89.50;;;;;;6285846;28;20193;-66
2023/04/20 10:46:52;;;;;;;5.93;4.30;;;10.80;87.70;;;;;;6280267;28;20192;-66
2023/04/20 10:49:53;;;;;;;6.53;4.70;;;11.00;89.10;;;;;;6300478;28;20262;-67
2023/04/20 10:52:54;;;;;;;4.70;4.30;;;11.00;87.30;;;;;;6264128;28;20384;-67
2023/04/20 10:55:59;;;;;;;4.73;4.30;;;11.10;76.20;;;;;;6296318;28;20238;-66
2023/04/20 10:59:06;;;;;;;3.87;3.57;;;11.40;86.60;;;;;;6286690;28;20189;-67
2023/04/20 11:02:09;;;;;;;5.27;4.27;;;11.70;79.60;;;;;;6283795;28;20234;-67
2023/04/20 11:05:11;;;;;;;5.27;4.30;;;11.90;85.10;;;;;;6303914;28;20236;-66
2023/04/20 11:08:11;;;;;;;5.00;4.57;;;12.10;82.60;;;;;;6303889;28;20186;-68
2023/04/20 11:11:20;;;;;;;6.40;4.27;;;12.20;85.70;;;;;;6286877;28;20224;-67
2023/04/20 11:14:21;;;;;;;4.60;4.20;;;12.50;83.00;;;;;;6296826;28;20240;-67
2023/04/20 11:17:32;;;;;;;4.77;3.67;;;12.60;79.20;;;;;;6272031;28;20193;-67
2023/04/20 11:20:33;;;;;;;4.80;4.40;;;13.00;72.00;;;;;;6280633;28;20296;-67
2023/04/20 11:23:37;;;;;;;4.63;3.83;;;13.00;68.70;;;;;;6301730;28;20200;-66
2023/04/20 11:26:39;;;;;;;4.73;4.30;;;13.10;64.10;;;;;;6282215;28;20205;-66
2023/04/20 11:29:40;;;;;;;3.90;3.60;;;12.80;66.80;;;;;;6286938;28;20308;-67
2023/04/20 11:32:40;;;;;;;5.83;3.77;;;12.80;65.70;;;;;;6276291;28;20260;-67
2023/04/20 11:35:42;;;;;;;5.13;3.97;;;13.00;64.40;;;;;;6288509;28;20234;-67
2023/04/20 11:38:43;;;;;;;5.93;4.23;;;13.20;67.50;;;;;;6295896;28;20203;-67
2023/04/20 11:41:44;;;;;;;5.00;4.37;;;13.50;61.10;;;;;;6298251;28;20216;-67
2023/04/20 11:44:44;;;;;;;4.30;3.90;;;13.50;61.10;;;;;;6274918;28;20279;-66
2023/04/20 11:47:46;;;;;;;5.20;4.10;;;13.80;65.80;;;;;;6283136;28;20288;-67
2023/04/20 11:50:46;;;;;;;4.83;3.73;;;14.10;62.20;;;;;;6294624;28;20231;-68
2023/04/20 11:53:47;;;;;;;4.90;3.87;;;14.40;58.20;;;;;;6296412;28;20242;-67
2023/04/20 11:56:48;;;;;;;7.00;4.63;;;14.60;58.20;;;;;;6267010;28;20227;-67
2023/04/20 11:59:49;;;;;;;9.47;4.67;;;14.60;60.40;;;;;;6278084;28;20206;-67
2023/04/20 12:02:50;;;;;;;4.23;3.60;;;14.90;60.60;;;;;;6298095;28;20216;-68
2023/04/20 12:05:50;;;;;;;5.73;3.70;;;14.90;53.30;;;;;;6288463;28;20199;-66
2023/04/20 12:08:51;;;;;;;4.40;4.00;;;15.00;56.90;;;;;;6298388;28;20214;-67
2023/04/20 12:11:51;;;;;;;4.40;4.00;;;15.60;55.50;;;;;;6259151;28;20189;-67
2023/04/20 12:14:52;;;;;;;4.13;3.77;;;16.10;55.60;;;;;;6298125;28;20249;-67
2023/04/20 12:17:53;;;;;;;3.63;3.33;;;16.70;53.70;;;;;;6286044;28;20201;-67
2023/04/20 12:20:53;;;;;;;5.03;4.30;;;17.60;54.50;;;;;;6299057;28;20192;-67
2023/04/20 12:23:55;;;;;;;4.27;3.83;;;18.30;52.00;;;;;;6291248;28;20383;-67
2023/04/20 12:26:58;;;;;;;4.87;3.33;;;18.80;48.10;;;;;;6271615;28;20221;-68
2023/04/20 12:29:58;;;;;;;4.00;3.27;;;19.10;46.00;;;;;;6279054;28;20210;-67
2023/04/20 12:32:59;;;;;;;3.57;3.27;;;19.70;44.90;;;;;;6270426;28;20197;-68
2023/04/20 12:36:00;;;;;;;3.80;3.50;;;19.90;45.20;;;;;;6275241;28;20232;-67
2023/04/20 12:39:01;;;;;;;4.00;3.60;;;21.40;46.50;;;;;;6300409;28;20264;-67
2023/04/20 12:42:02;;;;;;;4.07;2.50;;;23.90;36.50;;;;;;6276163;28;20284;-68
2023/04/20 12:45:03;;;;;;;3.53;2.87;;;24.70;37.00;;;;;;6273868;28;20204;-68
2023/04/20 12:48:04;;;;;;;3.20;2.90;;;25.80;35.90;;;;;;6293826;28;20176;-69
2023/04/20 12:51:05;;;;;;;3.87;3.33;;;24.90;35.50;;;;;;6277751;28;20360;-68
2023/04/20 12:54:05;;;;;;;3.67;3.23;;;24.00;35.90;;;;;;6285694;28;20193;-68
2023/04/20 12:57:06;;;;;;;4.80;3.57;;;22.30;37.80;;;;;;6270836;28;20193;-67
2023/04/20 13:00:07;;;;;;;3.80;3.50;;;21.30;39.30;;;;;;6287896;28;20201;-67
2023/04/20 13:03:09;;;;;;;4.17;3.00;;;21.60;39.40;;;;;;6266472;28;20189;-67
2023/04/20 13:06:10;;;;;;;3.77;2.83;;;;;;;;;;6265863;28;20267;-68
2023/04/20 13:09:11;;;;;;;3.03;2.73;;;26.20;35.40;;;;;;6325183;28;20220;-67
2023/04/20 13:12:12;;;;;;;3.80;3.30;;;27.80;32.10;;;;;;6285087;28;20201;-68
2023/04/20 13:15:13;;;;;;;5.40;2.83;;;29.40;28.70;;;;;;6279092;28;20192;-68
2023/04/20 13:18:14;;;;;;;4.23;2.93;;;28.90;29.20;;;;;;6278388;28;20192;-70
2023/04/20 13:21:15;;;;;;;3.40;2.63;;;27.30;30.80;;;;;;6264767;28;20197;-68
2023/04/20 13:24:16;;;;;;;2.50;2.30;;;25.40;33.70;;;;;;6279369;28;20204;-68
2023/04/20 13:27:16;;;;;;;2.50;2.30;;;23.50;34.60;;;;;;6272648;28;20275;-68
2023/04/20 13:30:17;;;;;;;2.93;2.23;;;21.60;35.80;;;;;;6286192;28;20220;-67
2023/04/20 13:33:18;;;;;;;2.93;2.50;;;20.90;37.40;;;;;;6271339;28;20188;-68
2023/04/20 13:36:19;;;;;;;3.00;2.80;;;;;;;;;;6285598;28;20192;-67
2023/04/20 13:39:20;;;;;;;3.13;2.93;;;20.00;40.20;;;;;;6315414;28;20192;-68
2023/04/20 13:42:21;;;;;;;2.80;2.60;;;19.10;41.70;;;;;;6292952;28;20199;-68
2023/04/20 13:45:23;;;;;;;3.57;2.87;;;19.40;41.40;;;;;;6302505;28;20266;-68
2023/04/20 13:48:23;;;;;;;4.37;2.83;;;19.50;41.40;;;;;;6278714;28;20201;-68
2023/04/20 13:51:25;;;;;;;2.73;2.53;;;18.80;43.40;;;;;;6293107;28;20213;-68
2023/04/20 13:54:26;;;;;;;2.90;2.70;;;18.50;44.40;;;;;;6273071;28;20201;-67
2023/04/20 13:57:28;;;;;;;3.10;2.90;;;;;;;;;;6276079;28;20219;-68
2023/04/20 14:00:29;;;;;;;3.57;3.03;;;;;;;;;;6276725;28;20204;-67
2023/04/20 14:03:31;;;;;;;2.73;2.53;;;;;;;;;;6259577;28;20200;-67
2023/04/20 14:06:31;;;;;;;3.00;2.70;;;18.00;45.90;;;;;;6287094;28;20193;-67
2023/04/20 14:09:32;;;;;;;3.07;2.77;;;17.20;47.50;;;;;;6280484;28;20291;-68
2023/04/20 14:12:33;;;;;;;2.87;2.50;;;17.20;50.20;;;;;;6285493;28;20196;-67
2023/04/20 14:15:34;;;;;;;4.23;2.93;;;;;;;;;;6277678;28;20190;-67
2023/04/20 14:18:36;;;;;;;3.33;2.70;;;;;;;;;;6300114;28;20189;-67
2023/04/20 14:21:37;;;;;;;5.13;2.90;;;;;;;;;;6271270;28;20194;-67
2023/04/20 14:24:39;;;;;;;3.70;2.93;;;;;;;;;;6296817;28;20192;-68
2023/04/20 14:27:40;;;;;;;5.27;2.70;;;17.00;50.00;;;;;;6275784;28;20194;-67
2023/04/20 14:30:42;;;;;;;3.43;3.10;;;16.20;53.60;;;;;;6293085;28;20217;-68
2023/04/20 14:33:43;;;;;;;6.33;2.93;;;16.00;52.50;;;;;;6275067;28;20288;-68
2023/04/20 14:36:44;;;;;;;3.67;3.07;;;16.00;52.30;;;;;;6279405;28;20206;-66
2023/04/20 14:39:44;;;;;;;3.70;3.40;;;15.90;53.80;;;;;;6296029;28;20195;-67
2023/04/20 14:42:46;;;;;;;3.90;3.40;;;15.80;53.10;;;;;;6269106;28;20192;-68
2023/04/20 14:45:46;;;;;;;4.40;3.93;;;15.80;53.50;;;;;;6285673;28;20260;-67
2023/04/20 14:48:47;;;;;;;4.03;3.60;;;15.60;52.00;;;;;;6292329;28;20187;-67
2023/04/20 14:51:51;;;;;;;3.37;3.07;;;15.60;52.50;;;;;;6268466;28;20287;-67
2023/04/20 14:54:52;;;;;;;3.50;3.20;;;15.60;54.40;;;;;;6278570;28;20217;-67
2023/04/20 14:57:56;;;;;;;3.30;3.00;;;15.50;54.60;;;;;;6281212;28;20188;-67
2023/04/20 15:00:57;;;;;;;3.97;2.90;;;15.50;56.30;;;;;;6306044;28;20210;-67
2023/04/20 15:03:57;;;;;;;4.10;3.70;;;15.60;57.10;;;;;;6281734;28;20188;-67
2023/04/20 15:06:58;;;;;;;4.47;3.63;;;15.60;55.50;;;;;;6289543;28;20185;-67
2023/04/20 15:09:59;;;;;;;3.93;3.53;;;;;;;;;;6276117;28;20237;-67
2023/04/20 15:13:00;;;;;;;4.93;3.87;;;15.60;54.60;;;;;;6281307;28;20186;-66
2023/04/20 15:16:00;;;;;;;3.40;3.10;;;15.90;53.40;;;;;;6295588;28;20227;-67
2023/04/20 15:19:01;;;;;;;4.40;3.20;;;16.00;53.70;;;;;;6287427;28;20192;-67
2023/04/20 15:22:02;;;;;;;4.87;3.67;;;16.10;54.00;;;;;;6276590;28;20189;-66
2023/04/20 15:25:03;;;;;;;3.73;3.27;;;16.30;53.70;;;;;;6287336;28;20196;-67
2023/04/20 15:28:04;;;;;;;4.67;3.70;;;16.20;53.70;;;;;;6284790;28;20193;-67
2023/04/20 15:31:06;;;;;;;4.07;3.67;;;16.20;52.30;;;;;;6317445;28;20222;-67
2023/04/20 15:34:07;;;;;;;2.97;2.77;;;16.40;51.70;;;;;;6298745;28;20232;-67
2023/04/20 15:37:08;;;;;;;4.87;3.60;;;16.40;52.70;;;;;;6285623;28;20181;-67
2023/04/20 15:40:09;;;;;;;3.87;3.20;;;16.40;54.00;;;;;;6272189;28;20189;-67
2023/04/20 15:43:10;;;;;;;2.90;2.70;;;16.30;53.80;;;;;;6306359;28;20213;-68
2023/04/20 15:46:11;;;;;;;3.70;3.20;;;16.10;52.70;;;;;;6283312;28;20211;-66
2023/04/20 15:49:11;;;;;;;3.97;3.00;;;16.00;53.70;;;;;;6281980;28;20208;-67
2023/04/20 15:52:12;;;;;;;4.23;2.90;;;16.00;54.80;;;;;;6287055;28;20227;-68
2023/04/20 15:55:12;;;;;;;3.83;3.20;;;15.80;55.50;;;;;;6265166;28;20188;-66